Translated METAR

82.8 °F / 28.2 °C
ENE at 18 MPH
79%
75.7°F / 24.3 °C
29.82" (1009 mb)
10 mile(s)
partly cloudy
2024.06.23 1720 UTC

Translated METAR

Kwajalein, Bucholz AAF, Kwajalein KMR ATOL Airport, Marshall Islands (PKWA) 08-43N 167-44E 2M
Jun 23, 2024 - 01:20 PM EDT / 2024.06.23 1720 UTC
Wind: from the ENE (070 degrees) at 18 MPH (16 KT):0
Visibility: 10 mile(s):0
Sky conditions: partly cloudy
Temperature: 82.8 F (28.2 C)
Dew Point: 75.7 F (24.3 C)
Relative Humidity: 79%
Pressure (altimeter): 29.82 in. Hg (1009 hPa)
ob: PKWA 231720Z AUTO 07016KT 10SM SCT021 SCT095 28/24 A2982 RMK AO2 T02820243
cycle: 17